createdAt,value
2023-04-20T00:01:27.463Z,10.40
2023-04-20T00:03:54.857Z,10.40
2023-04-20T00:06:22.093Z,10.40
2023-04-20T00:08:49.487Z,10.40
2023-04-20T00:11:19.588Z,10.40
2023-04-20T00:13:46.732Z,10.40
2023-04-20T00:16:13.793Z,10.40
2023-04-20T00:18:40.799Z,10.40
2023-04-20T00:21:07.930Z,10.40
2023-04-20T00:23:38.005Z,10.40
2023-04-20T00:26:05.216Z,10.40
2023-04-20T00:28:32.182Z,10.40
2023-04-20T00:30:59.225Z,10.40
2023-04-20T00:33:28.782Z,10.40
2023-04-20T00:35:56.652Z,10.40
2023-04-20T00:38:23.950Z,10.40
2023-04-20T00:40:54.127Z,10.40
2023-04-20T00:43:22.916Z,10.40
2023-04-20T00:45:54.212Z,10.40
2023-04-20T00:48:22.170Z,10.30
2023-04-20T00:50:51.193Z,10.40
2023-04-20T00:53:19.299Z,10.30
2023-04-20T00:55:46.908Z,10.40
2023-04-20T00:58:14.059Z,10.30
2023-04-20T01:00:42.267Z,10.40
2023-04-20T01:03:10.536Z,10.30
2023-04-20T01:05:38.586Z,10.30
2023-04-20T01:08:05.522Z,10.30
2023-04-20T01:10:32.545Z,10.30
2023-04-20T01:12:59.480Z,10.30
2023-04-20T01:15:27.394Z,10.30
2023-04-20T01:17:55.023Z,10.30
2023-04-20T01:20:23.805Z,10.30
2023-04-20T01:22:56.650Z,10.30
2023-04-20T01:25:23.745Z,10.30
2023-04-20T01:27:50.647Z,10.30
2023-04-20T01:30:18.707Z,10.20
2023-04-20T01:32:46.010Z,10.20
2023-04-20T01:35:13.189Z,10.20
2023-04-20T01:37:40.963Z,10.20
2023-04-20T01:40:13.298Z,10.20
2023-04-20T01:42:40.930Z,10.20
2023-04-20T01:45:08.859Z,10.20
2023-04-20T01:47:37.088Z,10.20
2023-04-20T01:50:04.255Z,10.20
2023-04-20T01:52:31.309Z,10.20
2023-04-20T01:54:58.251Z,10.20
2023-04-20T01:57:25.386Z,10.20
2023-04-20T01:59:53.453Z,10.10
2023-04-20T02:02:20.828Z,10.10
2023-04-20T02:04:47.836Z,10.10
2023-04-20T02:07:16.861Z,10.10
2023-04-20T02:09:44.126Z,10.10
2023-04-20T02:12:11.054Z,10.10
2023-04-20T02:14:39.786Z,10.00
2023-04-20T02:17:10.605Z,10.00
2023-04-20T02:19:37.867Z,10.00
2023-04-20T02:22:04.853Z,10.00
2023-04-20T02:24:32.518Z,10.00
2023-04-20T02:26:59.429Z,10.00
2023-04-20T02:29:26.455Z,10.00
2023-04-20T02:31:53.683Z,10.00
2023-04-20T02:34:22.992Z,9.90
2023-04-20T02:36:49.934Z,9.90
2023-04-20T02:39:17.151Z,9.80
2023-04-20T02:41:44.700Z,9.90
2023-04-20T02:44:12.543Z,9.80
2023-04-20T02:46:39.897Z,9.80
2023-04-20T02:49:08.319Z,9.80
2023-04-20T02:51:40.447Z,9.70
2023-04-20T02:54:07.604Z,9.70
2023-04-20T02:56:34.565Z,9.70
2023-04-20T02:59:06.049Z,9.60
2023-04-20T03:01:44.108Z,9.60
2023-04-20T03:04:22.455Z,9.60
2023-04-20T03:07:16.964Z,9.60
2023-04-20T03:09:44.422Z,9.50
2023-04-20T03:12:18.665Z,9.60
2023-04-20T03:15:07.958Z,9.60
2023-04-20T03:17:45.319Z,9.60
2023-04-20T03:20:13.457Z,9.60
2023-04-20T03:22:40.451Z,9.60
2023-04-20T03:25:09.266Z,9.60
2023-04-20T03:27:54.657Z,9.60
2023-04-20T03:30:22.206Z,9.60
2023-04-20T03:32:56.115Z,9.50
2023-04-20T03:35:23.431Z,9.50
2023-04-20T03:37:50.462Z,9.50
2023-04-20T03:40:17.397Z,9.50
2023-04-20T03:42:44.451Z,9.40
2023-04-20T03:45:12.224Z,9.40
2023-04-20T03:47:39.833Z,9.40
2023-04-20T03:50:07.552Z,9.40
2023-04-20T03:52:34.769Z,9.40
2023-04-20T03:55:05.706Z,9.40
2023-04-20T03:57:34.131Z,9.40
2023-04-20T04:00:03.829Z,9.40
2023-04-20T04:02:45.425Z,9.40
2023-04-20T04:05:14.724Z,9.40
2023-04-20T04:07:41.825Z,9.40
2023-04-20T04:10:10.518Z,9.40
2023-04-20T04:12:39.278Z,9.40
2023-04-20T04:15:08.129Z,9.40
2023-04-20T04:17:41.203Z,9.40
2023-04-20T04:20:09.211Z,9.40
2023-04-20T04:22:36.619Z,9.30
2023-04-20T04:25:28.333Z,9.30
2023-04-20T04:27:55.396Z,9.20
2023-04-20T04:30:24.183Z,9.20
2023-04-20T04:32:51.864Z,9.20
2023-04-20T04:35:19.371Z,9.10
2023-04-20T04:37:47.548Z,9.10
2023-04-20T04:40:15.091Z,9.10
2023-04-20T04:42:45.449Z,9.10
2023-04-20T04:45:14.066Z,9.00
2023-04-20T04:47:44.773Z,9.00
2023-04-20T04:50:13.418Z,9.00
2023-04-20T04:52:40.625Z,8.90
2023-04-20T04:55:10.012Z,9.00
2023-04-20T04:57:38.819Z,8.90
2023-04-20T05:00:09.551Z,8.90
2023-04-20T05:02:36.809Z,8.90
2023-04-20T05:05:04.344Z,8.90
2023-04-20T05:07:31.331Z,8.90
2023-04-20T05:09:58.916Z,8.90
2023-04-20T05:12:26.498Z,8.90
2023-04-20T05:14:53.788Z,8.80
2023-04-20T05:17:20.883Z,8.80
2023-04-20T05:19:48.018Z,8.80
2023-04-20T05:22:15.031Z,8.80
2023-04-20T05:24:44.673Z,8.80
2023-04-20T05:27:11.693Z,8.80
2023-04-20T05:29:39.020Z,8.80
2023-04-20T05:32:06.292Z,8.90
2023-04-20T05:34:34.519Z,8.90
2023-04-20T05:37:04.778Z,8.90
2023-04-20T05:39:32.079Z,9.00
2023-04-20T05:41:59.256Z,8.90
2023-04-20T05:44:26.287Z,8.90
2023-04-20T05:46:53.496Z,8.90
2023-04-20T05:49:20.917Z,8.90
2023-04-20T05:51:48.027Z,8.90
2023-04-20T05:54:14.950Z,8.80
2023-04-20T05:56:41.969Z,8.80
2023-04-20T05:59:09.337Z,8.70
2023-04-20T06:01:36.474Z,8.70
2023-04-20T06:04:03.768Z,8.70
2023-04-20T06:06:30.955Z,8.70
2023-04-20T06:08:58.954Z,8.70
2023-04-20T06:11:26.637Z,8.70
2023-04-20T06:13:53.623Z,8.70
2023-04-20T06:16:21.181Z,8.80
2023-04-20T06:18:49.764Z,8.80
2023-04-20T06:21:17.605Z,8.80
2023-04-20T06:23:44.800Z,8.90
2023-04-20T06:26:11.966Z,8.80
2023-04-20T06:28:40.479Z,8.90
2023-04-20T06:31:07.973Z,8.90
2023-04-20T06:33:35.278Z,8.80
2023-04-20T06:36:02.229Z,8.80
2023-04-20T06:38:29.535Z,8.90
2023-04-20T06:40:59.061Z,8.90
2023-04-20T06:43:26.859Z,8.90
2023-04-20T06:45:54.456Z,9.00
2023-04-20T06:48:31.484Z,9.00
2023-04-20T06:51:00.827Z,9.00
2023-04-20T06:53:28.165Z,9.10
2023-04-20T06:55:56.014Z,9.10
2023-04-20T06:58:22.988Z,9.10
2023-04-20T07:00:51.092Z,9.10
2023-04-20T07:03:19.539Z,9.10
2023-04-20T07:05:46.784Z,9.20
2023-04-20T07:08:16.018Z,9.20
2023-04-20T07:10:44.110Z,9.20
2023-04-20T07:13:12.803Z,9.20
2023-04-20T07:15:39.716Z,9.30
2023-04-20T07:18:06.836Z,9.30
2023-04-20T07:20:33.785Z,9.30
2023-04-20T07:23:00.744Z,9.40
2023-04-20T07:25:28.006Z,9.40
2023-04-20T07:27:54.907Z,9.40
2023-04-20T07:30:21.825Z,9.40
2023-04-20T07:32:49.388Z,9.40
2023-04-20T07:35:18.966Z,9.40
2023-04-20T07:37:48.178Z,9.50
2023-04-20T07:40:17.339Z,9.50
2023-04-20T07:42:44.972Z,9.50
2023-04-20T07:45:13.752Z,9.60
2023-04-20T07:47:45.701Z,9.60
2023-04-20T07:50:14.230Z,9.60
2023-04-20T07:52:42.623Z,9.70
2023-04-20T07:55:12.101Z,9.70
2023-04-20T07:57:39.133Z,9.70
2023-04-20T08:00:10.251Z,9.70
2023-04-20T08:02:40.606Z,9.70
2023-04-20T08:05:10.434Z,9.80
2023-04-20T08:07:38.369Z,9.80
2023-04-20T08:10:08.165Z,9.80
2023-04-20T08:12:36.281Z,9.90
2023-04-20T08:15:07.706Z,9.90
2023-04-20T08:18:00.628Z,9.90
2023-04-20T08:20:27.861Z,10.00
2023-04-20T08:22:54.791Z,10.00
2023-04-20T08:25:21.813Z,10.00
2023-04-20T08:27:48.764Z,10.10
2023-04-20T08:30:16.008Z,10.10
2023-04-20T08:32:42.977Z,10.10
2023-04-20T08:35:09.986Z,10.10
2023-04-20T08:37:37.651Z,10.20
2023-04-20T08:40:05.766Z,10.20
2023-04-20T08:42:32.816Z,10.20
2023-04-20T08:44:59.913Z,10.30
2023-04-20T08:47:29.280Z,10.30
2023-04-20T08:49:58.540Z,10.30
2023-04-20T08:52:25.531Z,10.30
2023-04-20T08:54:57.481Z,10.40
2023-04-20T08:57:26.285Z,10.40
2023-04-20T08:59:53.789Z,10.40
2023-04-20T09:02:21.982Z,10.50
2023-04-20T09:04:49.991Z,10.50
2023-04-20T09:07:19.948Z,10.50
2023-04-20T09:09:57.601Z,10.50
2023-04-20T09:12:29.075Z,10.60
2023-04-20T09:14:56.875Z,10.60
2023-04-20T09:17:41.353Z,10.60
2023-04-20T09:20:09.352Z,10.60
2023-04-20T09:22:37.782Z,10.60
2023-04-20T09:25:17.953Z,10.60
2023-04-20T09:27:59.474Z,10.60
2023-04-20T09:30:51.638Z,10.60
2023-04-20T09:33:19.626Z,10.70
2023-04-20T09:35:46.697Z,10.60
2023-04-20T09:38:18.831Z,10.60
2023-04-20T09:40:47.049Z,10.70
2023-04-20T09:43:19.179Z,10.70
2023-04-20T09:45:46.359Z,10.70
2023-04-20T09:48:19.116Z,10.70
2023-04-20T09:50:49.813Z,10.60
2023-04-20T09:53:18.614Z,10.60
2023-04-20T09:55:50.374Z,10.60
2023-04-20T09:58:20.393Z,10.60
2023-04-20T10:00:47.551Z,10.60
2023-04-20T10:03:19.122Z,10.60
2023-04-20T10:05:46.382Z,10.60
2023-04-20T10:08:13.557Z,10.60
2023-04-20T10:10:47.061Z,10.60
2023-04-20T10:13:15.141Z,10.60
2023-04-20T10:15:43.094Z,10.60
2023-04-20T10:18:24.986Z,10.60
2023-04-20T10:21:03.859Z,10.70
2023-04-20T10:23:31.021Z,10.70
2023-04-20T10:26:03.269Z,10.60
2023-04-20T10:28:42.266Z,10.70
2023-04-20T10:31:13.836Z,10.70
2023-04-20T10:33:54.902Z,10.70
2023-04-20T10:36:24.864Z,10.70
2023-04-20T10:38:53.099Z,10.70
2023-04-20T10:41:22.027Z,10.80
2023-04-20T10:43:49.604Z,10.80
2023-04-20T10:46:22.009Z,10.80
2023-04-20T10:49:01.582Z,10.80
2023-04-20T10:51:30.851Z,10.90
2023-04-20T10:54:18.285Z,10.90
2023-04-20T10:56:51.907Z,10.90
2023-04-20T10:59:21.795Z,10.90
2023-04-20T11:01:50.213Z,11.00
2023-04-20T11:04:19.080Z,11.00
2023-04-20T11:06:48.611Z,11.00
2023-04-20T11:09:22.803Z,11.10
2023-04-20T11:12:05.376Z,11.10
2023-04-20T11:14:34.910Z,11.10
2023-04-20T11:17:02.305Z,11.10
2023-04-20T11:19:32.164Z,11.20
2023-04-20T11:21:59.836Z,11.20
2023-04-20T11:24:30.942Z,11.30
2023-04-20T11:26:59.131Z,11.30
2023-04-20T11:29:33.567Z,11.30
2023-04-20T11:32:10.359Z,11.30
2023-04-20T11:34:39.673Z,11.40
2023-04-20T11:37:09.729Z,11.40
2023-04-20T11:39:37.948Z,11.40
2023-04-20T11:42:05.892Z,11.40
2023-04-20T11:44:34.925Z,11.40
2023-04-20T11:47:02.181Z,11.50
2023-04-20T11:49:29.567Z,11.50
2023-04-20T11:51:57.141Z,11.50
2023-04-20T11:54:24.610Z,11.50
2023-04-20T11:56:51.957Z,11.50
2023-04-20T11:59:20.660Z,11.50
2023-04-20T12:01:48.379Z,11.50
2023-04-20T12:04:16.398Z,11.50
2023-04-20T12:06:45.789Z,11.50
2023-04-20T12:09:17.201Z,11.60
2023-04-20T12:11:44.872Z,11.60
2023-04-20T12:14:11.956Z,11.60
2023-04-20T12:16:38.977Z,11.70
2023-04-20T12:19:06.121Z,11.70
2023-04-20T12:21:33.144Z,11.80
2023-04-20T12:24:00.113Z,11.80
2023-04-20T12:26:37.909Z,11.90
2023-04-20T12:29:07.285Z,11.90
2023-04-20T12:31:36.021Z,12.00
2023-04-20T12:34:04.894Z,12.10
2023-04-20T12:36:32.763Z,12.10
2023-04-20T12:38:59.768Z,12.20
2023-04-20T12:41:26.765Z,12.20
2023-04-20T12:43:54.870Z,12.30
2023-04-20T12:46:21.854Z,12.40
2023-04-20T12:48:48.894Z,12.40
2023-04-20T12:51:15.859Z,12.50
2023-04-20T12:53:42.834Z,12.50
2023-04-20T12:56:11.258Z,12.60
2023-04-20T12:58:38.393Z,12.60
2023-04-20T13:01:05.563Z,12.70
2023-04-20T13:03:32.873Z,12.70
2023-04-20T13:06:00.485Z,12.80
2023-04-20T13:08:27.702Z,12.90
2023-04-20T13:10:54.908Z,13.00
2023-04-20T13:13:21.906Z,13.10
2023-04-20T13:15:49.988Z,13.10
2023-04-20T13:18:18.390Z,13.20
2023-04-20T13:20:45.445Z,13.30
2023-04-20T13:23:12.494Z,13.40
2023-04-20T13:25:39.413Z,13.40
2023-04-20T13:28:06.596Z,13.50
2023-04-20T13:30:33.717Z,13.60
2023-04-20T13:33:02.780Z,13.70
2023-04-20T13:35:30.406Z,13.80
2023-04-20T13:37:57.572Z,13.90
2023-04-20T13:40:24.960Z,14.00
2023-04-20T13:42:51.915Z,14.10
2023-04-20T13:45:19.208Z,14.20
2023-04-20T13:47:46.247Z,14.30
2023-04-20T13:50:13.315Z,14.40
2023-04-20T13:52:40.365Z,14.40
2023-04-20T13:55:07.698Z,14.50
2023-04-20T13:57:35.019Z,14.60
2023-04-20T14:00:03.027Z,14.60
2023-04-20T14:02:33.334Z,14.70
2023-04-20T14:05:02.770Z,14.70
2023-04-20T14:07:30.785Z,14.80
2023-04-20T14:10:00.038Z,14.90
2023-04-20T14:12:27.738Z,14.90
2023-04-20T14:14:57.786Z,15.00
2023-04-20T14:17:24.949Z,15.10
2023-04-20T14:19:52.108Z,15.20
2023-04-20T14:22:18.994Z,15.20
2023-04-20T14:24:46.680Z,15.20
2023-04-20T14:27:13.843Z,15.30
2023-04-20T14:29:41.115Z,15.30
2023-04-20T14:32:08.222Z,15.40
2023-04-20T14:34:35.220Z,15.40
2023-04-20T14:37:02.117Z,15.40
2023-04-20T14:39:29.163Z,15.40
2023-04-20T14:41:56.365Z,15.50
2023-04-20T14:44:23.403Z,15.50
2023-04-20T14:46:50.616Z,15.50
2023-04-20T14:49:17.650Z,15.50
2023-04-20T14:51:44.657Z,15.50
2023-04-20T14:54:11.646Z,15.50
2023-04-20T14:56:38.732Z,15.50
2023-04-20T14:59:06.926Z,15.50
2023-04-20T15:01:34.063Z,15.50
2023-04-20T15:04:01.584Z,15.50
2023-04-20T15:06:28.847Z,15.50
2023-04-20T15:08:56.588Z,15.50
2023-04-20T15:11:23.673Z,15.50
2023-04-20T15:13:52.346Z,15.50
2023-04-20T15:16:19.630Z,15.50
2023-04-20T15:18:46.736Z,15.50
2023-04-20T15:21:13.728Z,15.50
2023-04-20T15:23:41.652Z,15.50
2023-04-20T15:26:09.236Z,15.50
2023-04-20T15:28:36.358Z,15.60
2023-04-20T15:31:03.421Z,15.60
2023-04-20T15:33:30.286Z,15.70
2023-04-20T15:35:57.270Z,15.70
2023-04-20T15:38:24.327Z,15.70
2023-04-20T15:40:51.888Z,15.70
2023-04-20T15:43:20.404Z,15.70
2023-04-20T15:45:50.118Z,15.70
2023-04-20T15:48:17.993Z,15.80
2023-04-20T15:50:45.076Z,15.80
2023-04-20T15:53:12.377Z,15.80
2023-04-20T15:55:39.897Z,15.90
2023-04-20T15:58:07.040Z,15.90
2023-04-20T16:00:34.849Z,15.90
2023-04-20T16:03:02.211Z,16.00
2023-04-20T16:05:29.646Z,16.00
2023-04-20T16:07:56.788Z,16.10
2023-04-20T16:10:23.791Z,16.10
2023-04-20T16:12:51.510Z,16.10
2023-04-20T16:15:18.519Z,16.20
2023-04-20T16:17:45.899Z,16.20
2023-04-20T16:20:13.777Z,16.30
2023-04-20T16:22:40.856Z,16.30
2023-04-20T16:25:09.472Z,16.30
2023-04-20T16:27:36.458Z,16.30
2023-04-20T16:30:03.857Z,16.30
2023-04-20T16:32:31.627Z,16.30
2023-04-20T16:34:58.737Z,16.30
2023-04-20T16:37:25.751Z,16.30
2023-04-20T16:39:52.718Z,16.30
2023-04-20T16:42:19.638Z,16.30
2023-04-20T16:44:46.671Z,16.30
2023-04-20T16:47:13.570Z,16.30
2023-04-20T16:49:40.553Z,16.30
2023-04-20T16:52:08.872Z,16.30
2023-04-20T16:54:35.887Z,16.30
2023-04-20T16:57:03.554Z,16.20
2023-04-20T16:59:30.554Z,16.20
2023-04-20T17:04:25.240Z,16.30
2023-04-20T17:06:53.969Z,16.20
2023-04-20T17:09:23.465Z,16.20
2023-04-20T17:11:53.123Z,16.20
2023-04-20T17:14:20.598Z,16.20
2023-04-20T17:16:51.851Z,16.10
2023-04-20T17:19:19.676Z,16.10
2023-04-20T17:21:50.948Z,16.10
2023-04-20T17:24:18.172Z,16.10
2023-04-20T17:26:46.638Z,16.10
2023-04-20T17:29:13.885Z,16.10
2023-04-20T17:31:41.097Z,16.00
2023-04-20T17:34:08.802Z,16.10
2023-04-20T17:36:37.355Z,16.10
2023-04-20T17:39:05.261Z,16.00
2023-04-20T17:41:32.907Z,16.00
2023-04-20T17:43:59.869Z,16.00
2023-04-20T17:46:27.342Z,16.00
2023-04-20T17:48:54.575Z,16.00
2023-04-20T17:51:21.632Z,16.00
2023-04-20T17:53:48.818Z,15.90
2023-04-20T17:56:15.909Z,15.90
2023-04-20T17:58:42.942Z,15.90
2023-04-20T18:01:10.136Z,15.80
2023-04-20T18:03:38.823Z,15.80
2023-04-20T18:06:06.043Z,15.80
2023-04-20T18:08:34.612Z,15.80
2023-04-20T18:11:05.954Z,15.70
2023-04-20T18:13:33.040Z,15.70
2023-04-20T18:16:00.214Z,15.70
2023-04-20T18:18:27.282Z,15.60
2023-04-20T18:20:54.274Z,15.60
2023-04-20T18:23:23.091Z,15.50
2023-04-20T18:25:53.496Z,15.50
2023-04-20T18:28:20.736Z,15.50
2023-04-20T18:30:48.526Z,15.50
2023-04-20T18:33:15.974Z,15.40
2023-04-20T18:35:43.661Z,15.40
2023-04-20T18:38:11.105Z,15.30
2023-04-20T18:40:39.353Z,15.30
2023-04-20T18:43:07.024Z,15.30
2023-04-20T18:45:35.168Z,15.20
2023-04-20T18:48:02.478Z,15.20
2023-04-20T18:50:30.016Z,15.20
2023-04-20T18:52:57.375Z,15.10
2023-04-20T18:55:24.533Z,15.10
2023-04-20T18:57:51.555Z,15.10
2023-04-20T19:00:19.653Z,15.10
2023-04-20T19:02:47.023Z,15.00
2023-04-20T19:05:14.738Z,15.00
2023-04-20T19:07:41.852Z,15.00
2023-04-20T19:10:10.630Z,14.90
2023-04-20T19:12:38.595Z,14.90
2023-04-20T19:15:06.605Z,14.80
2023-04-20T19:17:35.410Z,14.80
2023-04-20T19:20:04.087Z,14.80
2023-04-20T19:22:32.026Z,14.80
2023-04-20T19:24:59.089Z,14.80
2023-04-20T19:27:26.902Z,14.80
2023-04-20T19:29:54.227Z,14.70
2023-04-20T19:32:21.613Z,14.70
2023-04-20T19:34:49.048Z,14.60
2023-04-20T19:37:16.512Z,14.60
2023-04-20T19:39:44.346Z,14.60
2023-04-20T19:42:11.725Z,14.50
2023-04-20T19:44:39.192Z,14.50
2023-04-20T19:47:06.255Z,14.50
2023-04-20T19:49:35.226Z,14.50
2023-04-20T19:52:02.592Z,14.50
2023-04-20T19:54:29.598Z,14.50
2023-04-20T19:56:57.804Z,14.50
2023-04-20T19:59:24.751Z,14.40
2023-04-20T20:01:51.873Z,14.40
2023-04-20T20:04:20.482Z,14.40
2023-04-20T20:06:50.664Z,14.40
2023-04-20T20:09:19.001Z,14.40
2023-04-20T20:11:50.613Z,14.40
2023-04-20T20:14:18.149Z,14.40
2023-04-20T20:16:45.311Z,14.30
2023-04-20T20:19:12.315Z,14.30
2023-04-20T20:21:39.262Z,14.30
2023-04-20T20:24:07.525Z,14.30
2023-04-20T20:26:35.031Z,14.30
2023-04-20T20:29:02.088Z,14.30
2023-04-20T20:31:29.190Z,14.30
2023-04-20T20:33:56.326Z,14.30
2023-04-20T20:36:23.965Z,14.30
2023-04-20T20:38:51.387Z,14.30
2023-04-20T20:41:24.404Z,14.30
2023-04-20T20:43:52.927Z,14.30
2023-04-20T20:46:21.358Z,14.20
2023-04-20T20:48:49.117Z,14.20
2023-04-20T20:51:16.596Z,14.20
2023-04-20T20:53:44.288Z,14.20
2023-04-20T20:56:11.360Z,14.20
2023-04-20T20:58:38.431Z,14.20
2023-04-20T21:01:05.654Z,14.20
2023-04-20T21:03:34.497Z,14.20
2023-04-20T21:06:02.697Z,14.10
2023-04-20T21:08:31.575Z,14.10
2023-04-20T21:10:58.917Z,14.10
2023-04-20T21:13:25.999Z,14.10
2023-04-20T21:15:54.728Z,14.10
2023-04-20T21:18:23.293Z,14.00
2023-04-20T21:20:50.421Z,14.00
2023-04-20T21:23:17.674Z,14.00
2023-04-20T21:25:44.684Z,14.00
2023-04-20T21:28:11.654Z,13.90
2023-04-20T21:30:38.575Z,13.90
2023-04-20T21:33:05.759Z,13.90
2023-04-20T21:35:32.875Z,13.90
2023-04-20T21:37:59.960Z,13.90
2023-04-20T21:40:29.864Z,13.80
2023-04-20T21:42:56.896Z,13.80
2023-04-20T21:45:23.915Z,13.80
2023-04-20T21:47:52.898Z,13.70
2023-04-20T21:50:19.914Z,13.70
2023-04-20T21:52:46.979Z,13.70
2023-04-20T21:55:14.864Z,13.60
2023-04-20T21:57:42.223Z,13.60
2023-04-20T22:00:09.828Z,13.60
2023-04-20T22:02:43.657Z,13.50
2023-04-20T22:05:12.004Z,13.50
2023-04-20T22:07:40.750Z,13.50
2023-04-20T22:10:09.209Z,13.40
2023-04-20T22:12:40.465Z,13.40
2023-04-20T22:15:13.504Z,13.40
2023-04-20T22:17:41.526Z,13.40
2023-04-20T22:20:10.879Z,13.30
2023-04-20T22:22:38.776Z,13.30
2023-04-20T22:25:07.220Z,13.30
2023-04-20T22:27:35.938Z,13.30
2023-04-20T22:30:03.376Z,13.20
2023-04-20T22:32:30.812Z,13.20
2023-04-20T22:34:57.953Z,13.20
2023-04-20T22:37:25.076Z,13.20
2023-04-20T22:39:53.168Z,13.20
2023-04-20T22:42:20.522Z,13.10
2023-04-20T22:44:47.468Z,13.10
2023-04-20T22:47:14.541Z,13.10
2023-04-20T22:49:42.605Z,13.10
2023-04-20T22:52:09.647Z,13.00
2023-04-20T22:54:37.726Z,13.00
2023-04-20T22:57:04.805Z,12.90
2023-04-20T22:59:31.832Z,12.90
2023-04-20T23:01:58.887Z,12.90
2023-04-20T23:04:26.093Z,12.80
2023-04-20T23:06:53.437Z,12.80
2023-04-20T23:09:20.588Z,12.80
2023-04-20T23:11:48.378Z,12.80
2023-04-20T23:14:15.336Z,12.80
2023-04-20T23:16:42.498Z,12.70
2023-04-20T23:19:09.478Z,12.70
2023-04-20T23:21:36.435Z,12.70
2023-04-20T23:24:03.507Z,12.70
2023-04-20T23:26:30.574Z,12.70
2023-04-20T23:28:57.649Z,12.70
2023-04-20T23:31:24.713Z,12.70
2023-04-20T23:33:51.772Z,12.70
2023-04-20T23:36:18.676Z,12.70
2023-04-20T23:38:45.968Z,12.60
2023-04-20T23:41:15.584Z,12.60
2023-04-20T23:43:42.617Z,12.60
2023-04-20T23:46:09.621Z,12.60
2023-04-20T23:48:36.672Z,12.60
2023-04-20T23:51:03.808Z,12.60
2023-04-20T23:53:30.896Z,12.60
2023-04-20T23:55:59.910Z,12.50
2023-04-20T23:58:27.912Z,12.60
